Time;durP1;ratioP1;P1;durP2;ratioP2;P2;SDS_P1;SDS_P2;PMS_P1;PMS_P2;Temp;Humidity;BMP_temperature;BMP_pressure;BME280_temperature;BME280_humidity;BME280_pressure;Samples;Min_cycle;Max_cycle;Signal;HPM_P1;HPM_P2
2021/04/29 00:02:22;;;;;;;29.75;14.07;;;;;;;-150.07;36.11;54951.16;4931901;29;20386;-81
2021/04/29 00:04:49;;;;;;;29.00;14.32;;;;;;;-150.07;35.98;54951.16;4964684;29;20059;-85
2021/04/29 00:07:16;;;;;;;48.00;16.50;;;;;;;-150.07;36.09;54944.88;4932029;29;20114;-87
2021/04/29 00:09:44;;;;;;;45.88;15.95;;;;;;;-150.07;35.93;54946.97;4925776;29;20048;-89
2021/04/29 00:12:12;;;;;;;38.92;15.30;;;;;;;-150.07;36.10;54946.97;4921507;29;20118;-88
2021/04/29 00:14:39;;;;;;;48.10;15.32;;;;;;;-150.07;36.38;54949.06;4925354;29;20078;-88
2021/04/29 00:17:06;;;;;;;33.33;15.07;;;;;;;-150.07;36.23;54951.16;4924097;29;20036;-87
2021/04/29 00:19:33;;;;;;;35.35;13.80;;;;;;;-150.07;36.39;54951.16;4923656;29;20420;-88
2021/04/29 00:22:00;;;;;;;30.17;13.80;;;;;;;-150.07;36.52;54946.97;4941260;29;20930;-87
2021/04/29 00:24:27;;;;;;;34.95;15.73;;;;;;;-150.07;36.34;54949.06;4922153;29;20044;-86
2021/04/29 00:26:54;;;;;;;37.72;13.85;;;;;;;-150.07;36.42;54949.06;4922658;29;20094;-85
2021/04/29 00:29:20;;;;;;;29.45;11.30;;;;;;;-150.07;34.04;54951.16;4925579;29;20051;-87
2021/04/29 00:32:11;;;;;;;32.45;13.30;;;;;;;-150.07;34.54;54949.06;5118040;27;20392;-89
2021/04/29 00:34:38;;;;;;;32.63;15.10;;;;;;;-150.07;34.80;54951.16;5130693;28;20070;-87
2021/04/29 00:37:05;;;;;;;31.30;13.50;;;;;;;-150.07;35.63;54946.97;5142141;27;20024;-88
2021/04/29 00:39:32;;;;;;;41.05;15.82;;;;;;;-150.07;36.16;54951.16;5106585;28;20028;-84
2021/04/29 00:41:58;;;;;;;34.08;14.50;;;;;;;-150.07;35.15;54951.16;5110074;28;20028;-90
2021/04/29 00:44:25;;;;;;;42.10;16.27;;;;;;;-150.07;36.39;54949.06;5111933;28;20083;-93
2021/04/29 00:46:52;;;;;;;50.15;18.30;;;;;;;-150.07;37.38;54949.06;5127299;28;20048;-92
2021/04/29 00:49:19;;;;;;;52.90;19.08;;;;;;;-150.07;37.88;54951.16;5108121;28;20059;-89
2021/04/29 00:51:46;;;;;;;48.42;20.30;;;;;;;-150.07;38.51;54946.97;5108662;28;20063;-88
2021/04/29 00:54:13;;;;;;;42.50;20.90;;;;;;;-150.07;38.22;54951.16;5109351;28;20058;-89
2021/04/29 00:56:40;;;;;;;51.28;21.77;;;;;;;-150.07;38.60;54946.97;5108972;28;20532;-90
2021/04/29 00:59:07;;;;;;;59.45;23.50;;;;;;;-150.07;38.49;54951.16;5102745;28;20035;-87
2021/04/29 01:01:35;;;;;;;45.83;19.05;;;;;;;-150.07;37.95;54949.06;5109599;28;20031;-89
2021/04/29 01:04:15;;;;;;;44.80;15.70;;;;;;;-150.07;36.50;54946.97;5107777;28;20016;-88
2021/04/29 01:06:55;;;;;;;49.40;15.48;;;;;;;-150.07;36.25;54946.97;5092549;28;20027;-88
2021/04/29 01:09:41;;;;;;;43.55;15.82;;;;;;;-150.07;35.68;54951.16;5088318;28;20504;-87
2021/04/29 01:12:31;;;;;;;49.58;12.07;;;;;;;-150.07;35.60;54949.06;5098002;28;20054;-88
2021/04/29 01:14:59;;;;;;;34.50;10.65;;;;;;;-150.07;34.91;54949.06;5108301;28;20180;-87
2021/04/29 01:17:27;;;;;;;30.63;10.15;;;;;;;-150.07;34.58;54949.06;5109491;28;20122;-91
2021/04/29 01:20:12;;;;;;;27.85;7.82;;;;;;;-150.07;33.27;54949.06;5109519;28;20114;-91
2021/04/29 01:22:47;;;;;;;41.63;8.07;;;;;;;-150.07;32.78;54951.16;5109459;28;20452;-88
2021/04/29 01:25:16;;;;;;;32.67;7.90;;;;;;;-150.07;32.00;54949.06;5105149;28;20052;-93
2021/04/29 01:27:45;;;;;;;39.83;7.45;;;;;;;-150.07;32.10;54951.16;5125121;28;20072;-92
2021/04/29 01:30:18;;;;;;;41.03;9.82;;;;;;;-150.07;32.28;54946.97;5110436;28;20092;-93
2021/04/29 01:32:47;;;;;;;33.60;8.55;;;;;;;-150.07;32.18;54949.06;5119882;28;20492;-89
2021/04/29 01:35:14;;;;;;;37.92;9.38;;;;;;;-150.07;32.64;54946.97;5120830;28;20023;-93
2021/04/29 01:37:41;;;;;;;41.38;9.88;;;;;;;-150.07;32.86;54946.97;5110712;28;20028;-89
2021/04/29 01:40:11;;;;;;;38.33;9.57;;;;;;;-150.07;33.31;54951.16;5125031;28;20392;-89
2021/04/29 01:42:39;;;;;;;42.35;10.25;;;;;;;-150.07;33.36;54949.06;5099984;28;20122;-88
2021/04/29 01:45:08;;;;;;;34.60;9.52;;;;;;;-150.07;32.60;54949.06;5096344;28;20025;-93
2021/04/29 01:47:36;;;;;;;33.53;8.80;;;;;;;-150.07;32.41;54946.97;5098606;28;20030;-93
2021/04/29 01:50:08;;;;;;;43.08;10.30;;;;;;;-150.07;32.66;54949.06;5080020;28;20031;-92
2021/04/29 01:52:35;;;;;;;28.50;9.00;;;;;;;-150.07;32.33;54951.16;5092488;28;20448;-87
2021/04/29 01:55:03;;;;;;;29.17;9.18;;;;;;;-150.07;32.34;54951.16;5111827;28;20024;-88
2021/04/29 01:57:30;;;;;;;22.50;9.20;;;;;;;-150.07;32.33;54951.16;5097729;28;20025;-86
2021/04/29 01:59:57;;;;;;;27.75;9.23;;;;;;;-150.07;32.51;54949.06;5095243;28;20028;-88
2021/04/29 02:02:25;;;;;;;28.30;7.72;;;;;;;-150.07;32.33;54949.06;5096647;28;20028;-87
2021/04/29 02:04:52;;;;;;;40.45;9.23;;;;;;;-150.07;33.14;54951.16;5095742;28;20047;-89
2021/04/29 02:07:19;;;;;;;36.88;9.57;;;;;;;-150.07;33.39;54949.06;5074505;28;20021;-89
2021/04/29 02:09:46;;;;;;;38.53;9.98;;;;;;;-150.07;33.15;54946.97;5073850;28;20039;-88
2021/04/29 02:12:16;;;;;;;29.48;9.93;;;;;;;-150.07;33.26;54949.06;5074756;28;20028;-92
2021/04/29 02:14:59;;;;;;;41.38;9.68;;;;;;;-150.07;33.21;54951.16;5075779;28;20109;-90
2021/04/29 02:17:49;;;;;;;33.53;9.18;;;;;;;-150.07;33.67;54946.97;5094369;28;20028;-90
2021/04/29 02:20:18;;;;;;;36.97;7.88;;;;;;;-150.07;33.64;54946.97;5083236;28;20032;-87
2021/04/29 02:22:46;;;;;;;36.65;10.18;;;;;;;-150.07;33.54;54951.16;5093695;28;20393;-88
2021/04/29 02:25:15;;;;;;;23.10;9.43;;;;;;;-150.07;34.00;54949.06;5093731;28;20047;-86
2021/04/29 02:27:43;;;;;;;34.08;8.43;;;;;;;-150.07;34.26;54946.97;5093235;28;20043;-88
2021/04/29 02:30:12;;;;;;;29.15;7.47;;;;;;;-150.07;33.25;54949.06;5091773;28;20040;-88
2021/04/29 02:32:40;;;;;;;41.50;10.07;;;;;;;-150.07;33.30;54949.06;5091655;28;20027;-87
2021/04/29 02:35:11;;;;;;;46.40;9.60;;;;;;;-150.07;33.89;54949.06;5085262;28;20035;-86
2021/04/29 02:37:39;;;;;;;31.20;9.90;;;;;;;-150.07;33.44;54951.16;5071871;28;20035;-86
2021/04/29 02:40:10;;;;;;;30.40;8.60;;;;;;;-150.07;32.85;54951.16;5111690;28;20024;-90
2021/04/29 02:42:39;;;;;;;36.13;11.40;;;;;;;-150.07;32.79;54951.16;5093577;28;20038;-87
2021/04/29 02:45:11;;;;;;;35.08;10.20;;;;;;;-150.07;33.31;54946.97;5096294;28;20039;-86
2021/04/29 02:47:49;;;;;;;37.63;10.15;;;;;;;-150.07;33.41;54946.97;5082646;28;20035;-87
2021/04/29 02:50:19;;;;;;;39.63;9.50;;;;;;;-150.07;33.28;54949.06;5108370;28;20088;-87
2021/04/29 02:52:49;;;;;;;33.80;9.18;;;;;;;-150.07;33.29;54946.97;5095758;28;20035;-87
2021/04/29 02:55:15;;;;;;;34.90;10.32;;;;;;;-150.07;32.80;54949.06;5096100;28;20028;-89
2021/04/29 02:57:42;;;;;;;37.40;9.68;;;;;;;-150.07;32.64;54951.16;5104301;28;20031;-89
2021/04/29 03:00:13;;;;;;;25.35;10.73;;;;;;;-150.07;32.83;54951.16;5102479;28;20048;-88
2021/04/29 03:02:40;;;;;;;34.63;9.50;;;;;;;-150.07;32.85;54949.06;5101881;28;20066;-89
2021/04/29 03:05:09;;;;;;;38.13;10.00;;;;;;;-150.07;33.00;54946.97;5100278;28;20176;-91
2021/04/29 03:07:38;;;;;;;35.97;9.02;;;;;;;-150.07;33.28;54949.06;5100990;28;20020;-90
2021/04/29 03:10:07;;;;;;;28.83;9.60;;;;;;;-150.07;32.99;54951.16;5122716;28;20032;-89
2021/04/29 03:12:34;;;;;;;35.45;11.23;;;;;;;-150.07;32.87;54946.97;5120690;28;20473;-89
2021/04/29 03:15:01;;;;;;;30.92;8.52;;;;;;;-150.07;32.71;54946.97;5120207;28;20024;-89
2021/04/29 03:17:28;;;;;;;30.58;9.50;;;;;;;-150.07;32.83;54949.06;5099299;28;20038;-89
2021/04/29 03:19:55;;;;;;;33.70;9.63;;;;;;;-150.07;32.58;54946.97;5090340;28;20082;-89
2021/04/29 03:22:22;;;;;;;42.78;11.55;;;;;;;-150.07;32.43;54951.16;5093920;28;20104;-90
2021/04/29 03:24:49;;;;;;;30.88;9.00;;;;;;;-150.07;32.31;54951.16;5093757;28;20125;-89
2021/04/29 03:27:17;;;;;;;29.88;11.23;;;;;;;-150.07;32.58;54949.06;5093562;28;20097;-89
2021/04/29 03:29:44;;;;;;;40.17;11.43;;;;;;;-150.07;32.29;54946.97;5076956;28;20451;-90
2021/04/29 03:32:11;;;;;;;23.20;10.32;;;;;;;-150.07;32.25;54951.16;5085962;28;20039;-89
2021/04/29 03:34:38;;;;;;;26.73;9.70;;;;;;;-150.07;32.51;54949.06;5080947;28;20020;-90
2021/04/29 03:37:05;;;;;;;23.88;9.07;;;;;;;-150.07;32.30;54946.97;5085880;28;20031;-89
2021/04/29 03:39:32;;;;;;;33.47;8.68;;;;;;;-150.07;32.91;54949.06;5091397;28;20077;-90
2021/04/29 03:41:59;;;;;;;41.88;9.82;;;;;;;-150.07;32.23;54949.06;5093303;28;20032;-90
2021/04/29 03:44:26;;;;;;;33.50;9.57;;;;;;;-150.07;32.31;54946.97;5092606;28;20028;-90
2021/04/29 03:46:53;;;;;;;37.60;10.98;;;;;;;-150.07;32.23;54946.97;5081124;28;20031;-89
2021/04/29 03:49:20;;;;;;;30.05;9.60;;;;;;;-150.07;32.61;54949.06;5084369;28;20047;-91
2021/04/29 03:51:47;;;;;;;26.65;11.88;;;;;;;-150.07;32.18;54946.97;5074559;28;20028;-91
2021/04/29 03:54:13;;;;;;;27.20;11.18;;;;;;;-150.07;32.27;54951.16;5074414;28;20111;-89
2021/04/29 03:56:41;;;;;;;38.22;13.70;;;;;;;-150.07;31.84;54949.06;5089382;28;20389;-90
2021/04/29 03:59:08;;;;;;;32.30;11.80;;;;;;;-150.07;31.81;54946.97;5088841;28;20031;-90
2021/04/29 04:01:35;;;;;;;28.48;12.98;;;;;;;-150.07;31.62;54946.97;5073583;28;20123;-88
2021/04/29 04:04:02;;;;;;;39.85;12.45;;;;;;;-150.07;32.05;54949.06;5097779;28;20028;-91
2021/04/29 04:06:29;;;;;;;29.35;12.77;;;;;;;-150.07;31.47;54949.06;5106372;28;20103;-90
2021/04/29 04:08:55;;;;;;;45.00;12.90;;;;;;;-150.07;32.30;54951.16;5102356;28;20020;-89
2021/04/29 04:11:22;;;;;;;43.65;12.45;;;;;;;-150.07;32.54;54946.97;5095630;28;20027;-90
2021/04/29 04:13:49;;;;;;;29.90;10.60;;;;;;;-150.07;32.15;54951.16;5092827;28;20036;-88
2021/04/29 04:16:16;;;;;;;42.90;13.68;;;;;;;-150.07;32.02;54951.16;5088342;28;20020;-88
2021/04/29 04:18:44;;;;;;;40.42;13.93;;;;;;;-150.07;31.79;54949.06;5082191;28;20028;-89
2021/04/29 04:21:11;;;;;;;42.72;13.73;;;;;;;-150.07;31.78;54946.97;5090622;28;20024;-89
2021/04/29 04:23:38;;;;;;;47.25;11.45;;;;;;;-150.07;31.66;54951.16;5093218;28;20086;-90
2021/04/29 04:26:04;;;;;;;31.55;11.07;;;;;;;-150.07;31.79;54949.06;5087784;28;20059;-90
2021/04/29 04:28:31;;;;;;;27.63;10.75;;;;;;;-150.07;31.67;54951.16;5072045;28;20016;-90
2021/04/29 04:30:58;;;;;;;41.40;16.17;;;;;;;-150.07;31.91;54946.97;5071645;28;20044;-90
2021/04/29 04:33:25;;;;;;;39.38;15.05;;;;;;;-150.07;31.56;54951.16;5079874;28;20137;-88
2021/04/29 04:35:52;;;;;;;32.45;13.35;;;;;;;-150.07;31.76;54949.06;5073699;28;20106;-90
2021/04/29 04:38:19;;;;;;;38.92;11.98;;;;;;;-150.07;31.95;54946.97;5087140;28;20107;-90
2021/04/29 04:40:45;;;;;;;46.30;11.52;;;;;;;-150.07;31.88;54949.06;5071998;28;20016;-89
2021/04/29 04:43:12;;;;;;;53.95;12.13;;;;;;;-150.07;32.33;54946.97;5071801;28;20032;-89
2021/04/29 04:45:43;;;;;;;32.63;12.30;;;;;;;-150.07;32.38;54951.16;5092418;28;20012;-89
2021/04/29 04:48:13;;;;;;;28.83;11.57;;;;;;;-150.07;31.95;54946.97;5095111;28;20032;-89
2021/04/29 04:50:39;;;;;;;;;;;;;;;-150.07;31.38;54949.06;5098864;28;20389;-89
2021/04/29 04:53:06;;;;;;;43.90;13.82;;;;;;;-150.07;31.58;54946.97;5102260;28;19912;-89
2021/04/29 04:55:35;;;;;;;28.55;12.65;;;;;;;-150.07;31.28;54946.97;5096371;28;20059;-90
2021/04/29 04:58:03;;;;;;;38.08;13.60;;;;;;;-150.07;31.52;54949.06;5092804;28;20028;-90
2021/04/29 05:00:30;;;;;;;32.75;12.65;;;;;;;-150.07;31.66;54944.88;5108870;28;20082;-91
2021/04/29 05:02:57;;;;;;;37.58;13.88;;;;;;;-150.07;31.17;54951.16;5098935;28;20082;-91
2021/04/29 05:05:24;;;;;;;36.72;12.40;;;;;;;-150.07;32.04;54944.88;5090128;28;20032;-88
2021/04/29 05:07:51;;;;;;;37.00;12.13;;;;;;;-150.07;32.49;54946.97;5091548;28;20028;-91
2021/04/29 05:10:17;;;;;;;40.85;14.35;;;;;;;-150.07;32.19;54951.16;5057867;28;20046;-90
2021/04/29 05:12:44;;;;;;;35.50;12.90;;;;;;;-150.07;31.56;54951.16;5035896;28;20127;-89
2021/04/29 05:15:11;;;;;;;42.50;12.50;;;;;;;-150.07;31.40;54949.06;5013786;28;20053;-90
2021/04/29 05:17:38;;;;;;;35.45;12.85;;;;;;;-150.07;30.91;54944.88;5034189;28;20095;-92
2021/04/29 05:20:05;;;;;;;45.83;13.27;;;;;;;-150.07;31.07;54946.97;5036301;28;20489;-90
2021/04/29 05:22:33;;;;;;;46.08;14.98;;;;;;;-150.07;30.83;54946.97;5037444;28;20081;-89
2021/04/29 05:24:59;;;;;;;41.88;16.23;;;;;;;-150.07;30.87;54951.16;5026344;28;20069;-90
2021/04/29 05:27:26;;;;;;;32.30;16.13;;;;;;;-150.07;30.85;54949.06;5017011;28;20034;-90
2021/04/29 05:29:54;;;;;;;39.33;13.52;;;;;;;-150.07;30.81;54946.97;5026289;28;20018;-91
2021/04/29 05:32:21;;;;;;;33.72;13.88;;;;;;;-150.07;31.14;54946.97;5021914;28;20026;-89
2021/04/29 05:34:48;;;;;;;55.90;14.82;;;;;;;-150.07;31.53;54946.97;5035925;28;20022;-90
2021/04/29 05:37:14;;;;;;;43.00;13.90;;;;;;;-150.07;31.13;54946.97;5035448;28;20029;-90
2021/04/29 05:39:41;;;;;;;45.08;14.63;;;;;;;-150.07;31.98;54951.16;5035190;28;20546;-90
2021/04/29 05:42:08;;;;;;;42.42;12.30;;;;;;;-150.07;31.07;54946.97;5047841;28;20402;-90
2021/04/29 05:44:35;;;;;;;43.72;15.70;;;;;;;-150.07;31.49;54951.16;5026293;28;20028;-91
2021/04/29 05:47:02;;;;;;;50.00;14.85;;;;;;;-150.07;31.37;54946.97;5048771;28;20052;-90
2021/04/29 05:49:29;;;;;;;37.08;12.60;;;;;;;-150.07;31.94;54946.97;5035443;28;20136;-89
2021/04/29 05:51:56;;;;;;;41.05;13.80;;;;;;;-150.07;31.58;54951.16;5034266;28;20116;-91
2021/04/29 05:54:23;;;;;;;38.95;14.38;;;;;;;-150.07;31.88;54942.78;5034750;28;20025;-92
2021/04/29 05:56:50;;;;;;;34.65;14.25;;;;;;;-150.07;31.33;54951.16;5046569;28;20098;-90
2021/04/29 05:59:17;;;;;;;60.10;18.90;;;;;;;-150.07;32.00;54946.97;5036771;28;20033;-91
2021/04/29 06:01:44;;;;;;;38.25;13.82;;;;;;;-150.07;32.66;54949.06;5034479;28;20037;-90
2021/04/29 06:04:11;;;;;;;53.05;16.33;;;;;;;-150.07;32.41;54951.16;5050753;28;20055;-89
2021/04/29 06:06:37;;;;;;;41.25;14.68;;;;;;;-150.07;32.75;54946.97;5054327;28;20033;-89
2021/04/29 06:09:05;;;;;;;34.83;15.18;;;;;;;-150.07;32.52;54946.97;5051143;28;20025;-90
2021/04/29 06:11:33;;;;;;;39.95;15.00;;;;;;;-150.07;32.17;54951.16;5043428;28;20029;-90
2021/04/29 06:14:00;;;;;;;44.90;15.80;;;;;;;-150.07;32.61;54949.06;5055045;28;20033;-91
2021/04/29 06:16:27;;;;;;;43.53;16.92;;;;;;;-150.07;32.92;54946.97;5039241;28;20519;-90
2021/04/29 06:18:53;;;;;;;39.67;17.25;;;;;;;-150.07;33.13;54951.16;5030720;28;20064;-90
2021/04/29 06:21:20;;;;;;;46.08;16.45;;;;;;;-150.07;32.92;54951.16;5014387;28;20521;-91
2021/04/29 06:23:47;;;;;;;45.20;15.55;;;;;;;-150.07;32.40;54946.97;5037775;28;20021;-90
2021/04/29 06:26:14;;;;;;;35.33;16.13;;;;;;;-150.07;31.81;54944.88;5058174;28;20031;-90
2021/04/29 06:28:41;;;;;;;41.47;16.45;;;;;;;-150.07;32.19;54949.06;5039720;28;20026;-90
2021/04/29 06:31:08;;;;;;;31.45;14.75;;;;;;;-150.07;31.95;54951.16;5045171;28;20115;-89
2021/04/29 06:33:35;;;;;;;43.97;16.67;;;;;;;-150.07;32.23;54946.97;5024050;28;20033;-90
2021/04/29 06:36:02;;;;;;;33.95;14.55;;;;;;;-150.07;32.17;54949.06;5040926;28;20039;-90
2021/04/29 06:38:30;;;;;;;38.78;16.70;;;;;;;-150.07;32.21;54951.16;5039843;28;20029;-91
2021/04/29 06:40:57;;;;;;;47.92;15.75;;;;;;;-150.07;32.17;54946.97;5015465;28;20116;-90
2021/04/29 06:43:24;;;;;;;38.47;16.00;;;;;;;-150.07;31.80;54946.97;5014738;28;20052;-90
2021/04/29 06:45:51;;;;;;;36.25;15.05;;;;;;;-150.07;32.36;54949.06;5031145;28;20056;-90
2021/04/29 06:48:18;;;;;;;50.63;15.68;;;;;;;-150.07;32.78;54951.16;5039802;28;20026;-90
2021/04/29 06:50:45;;;;;;;40.88;13.45;;;;;;;-150.07;32.76;54946.97;5045271;28;20107;-89
2021/04/29 06:53:12;;;;;;;46.90;15.02;;;;;;;-150.07;32.24;54946.97;5033592;28;20475;-90
2021/04/29 06:55:39;;;;;;;50.80;15.90;;;;;;;-150.07;32.33;54944.88;5033186;28;20045;-91
2021/04/29 06:58:07;;;;;;;39.85;16.38;;;;;;;-150.07;32.58;54946.97;5033382;28;20021;-89
2021/04/29 07:00:34;;;;;;;43.42;14.68;;;;;;;-150.07;32.82;54944.88;5033248;28;20061;-88
2021/04/29 07:03:01;;;;;;;42.08;16.75;;;;;;;-150.07;32.51;54946.97;5032761;28;20061;-89
2021/04/29 07:05:28;;;;;;;43.22;15.00;;;;;;;-150.07;33.03;54944.88;5036476;28;20033;-90
2021/04/29 07:07:56;;;;;;;39.78;15.23;;;;;;;-150.07;32.48;54951.16;5055696;28;20028;-89
2021/04/29 07:10:25;;;;;;;36.33;16.27;;;;;;;-150.07;32.57;54951.16;5038917;28;20482;-90
2021/04/29 07:12:52;;;;;;;39.70;15.35;;;;;;;-150.07;32.02;54951.16;5034023;28;20026;-91
2021/04/29 07:15:19;;;;;;;46.28;15.90;;;;;;;-150.07;31.51;54949.06;5032041;28;20083;-91
2021/04/29 07:17:47;;;;;;;52.47;14.07;;;;;;;-150.07;31.46;54951.16;5013656;28;20061;-91
2021/04/29 07:20:14;;;;;;;39.05;13.68;;;;;;;-150.07;30.74;54949.06;5013350;28;20386;-90
2021/04/29 07:22:41;;;;;;;34.80;13.60;;;;;;;-150.07;30.87;54951.16;5046109;28;20022;-88
2021/04/29 07:25:08;;;;;;;41.05;12.02;;;;;;;-150.07;29.92;54949.06;5038238;28;20029;-90
2021/04/29 07:27:36;;;;;;;33.78;12.45;;;;;;;-150.07;30.12;54942.78;5034456;28;20029;-88
2021/04/29 07:30:04;;;;;;;54.33;13.07;;;;;;;-150.07;28.95;54949.06;5032561;28;20061;-89
2021/04/29 07:32:31;;;;;;;42.60;13.77;;;;;;;-150.07;29.20;54946.97;5033465;28;20030;-87
2021/04/29 07:34:59;;;;;;;33.33;11.77;;;;;;;-150.07;29.29;54949.06;5040248;28;20040;-89
2021/04/29 07:37:25;;;;;;;39.40;11.95;;;;;;;-150.07;29.10;54944.88;5053126;28;20055;-90
2021/04/29 07:39:55;;;;;;;31.35;12.70;;;;;;;-150.07;29.24;54946.97;5045708;28;20155;-89
2021/04/29 07:42:22;;;;;;;41.08;12.15;;;;;;;-150.07;29.79;54942.78;5033267;28;20640;-89
2021/04/29 07:44:48;;;;;;;45.40;16.20;;;;;;;-150.07;30.41;54946.97;5037355;28;20167;-87
2021/04/29 07:47:16;;;;;;;47.80;15.13;;;;;;;-150.07;31.20;54946.97;5051879;28;20098;-88
2021/04/29 07:49:42;;;;;;;49.28;15.80;;;;;;;-150.07;31.33;54949.06;5052760;28;20025;-87
2021/04/29 07:52:09;;;;;;;39.40;15.45;;;;;;;-150.07;31.84;54944.88;5043468;28;20839;-88
2021/04/29 07:54:36;;;;;;;38.67;16.88;;;;;;;-150.07;32.86;54946.97;5032497;28;20119;-88
2021/04/29 07:57:03;;;;;;;42.13;15.93;;;;;;;-150.07;33.26;54951.16;5031320;28;20059;-89
2021/04/29 07:59:30;;;;;;;40.22;15.38;;;;;;;-150.07;33.74;54946.97;5015294;28;20407;-89
2021/04/29 08:01:57;;;;;;;43.17;15.73;;;;;;;-150.07;34.17;54949.06;5015636;28;20036;-86
2021/04/29 08:04:24;;;;;;;47.75;17.15;;;;;;;-150.07;33.86;54949.06;5029280;28;20065;-89
2021/04/29 08:06:51;;;;;;;35.35;13.95;;;;;;;-150.07;34.37;54949.06;5044404;28;20017;-89
2021/04/29 08:09:18;;;;;;;35.45;14.73;;;;;;;-150.07;34.34;54949.06;5044904;28;20029;-90
2021/04/29 08:11:45;;;;;;;43.38;16.70;;;;;;;-150.07;34.60;54949.06;5040726;28;20033;-89
2021/04/29 08:14:12;;;;;;;46.08;15.77;;;;;;;-150.07;35.11;54949.06;5040294;28;20026;-88
2021/04/29 08:16:39;;;;;;;44.13;16.45;;;;;;;-150.07;36.16;54951.16;5034935;28;20399;-87
2021/04/29 08:19:05;;;;;;;46.53;15.82;;;;;;;-150.07;35.65;54946.97;5032021;28;20021;-91
2021/04/29 08:21:32;;;;;;;50.13;16.58;;;;;;;-150.07;35.04;54946.97;5018586;28;20021;-90
2021/04/29 08:23:59;;;;;;;43.20;15.43;;;;;;;-150.07;34.73;54949.06;5019179;28;20025;-87
2021/04/29 08:26:26;;;;;;;44.55;16.60;;;;;;;-150.07;34.65;54951.16;5043391;28;20048;-88
2021/04/29 08:28:53;;;;;;;46.85;17.25;;;;;;;-150.07;35.13;54949.06;5036929;28;20049;-88
2021/04/29 08:31:20;;;;;;;47.33;18.73;;;;;;;-150.07;35.66;54949.06;5031123;28;20045;-89
2021/04/29 08:33:47;;;;;;;41.95;15.95;;;;;;;-150.07;35.58;54949.06;5031869;28;20029;-79
2021/04/29 08:36:13;;;;;;;47.30;16.23;;;;;;;-150.07;35.54;54951.16;5030933;28;20025;-83
2021/04/29 08:38:40;;;;;;;39.55;16.23;;;;;;;-150.07;34.96;54951.16;5029605;28;20473;-85
2021/04/29 08:41:07;;;;;;;44.78;15.63;;;;;;;-150.07;34.91;54946.97;5026286;28;20034;-86
2021/04/29 08:43:34;;;;;;;48.42;16.05;;;;;;;-150.07;34.95;54951.16;5025489;28;20105;-84
2021/04/29 08:46:01;;;;;;;43.92;17.65;;;;;;;-150.07;37.06;54946.97;5025957;28;20032;-81
2021/04/29 08:48:27;;;;;;;48.47;20.27;;;;;;;-150.07;39.11;54946.97;5029564;28;20033;-83
2021/04/29 08:50:54;;;;;;;41.05;18.77;;;;;;;-150.07;41.84;54946.97;5028185;28;20117;-84
2021/04/29 08:53:21;;;;;;;49.50;19.77;;;;;;;-150.07;42.63;54951.16;5025777;28;20033;-84
2021/04/29 08:55:48;;;;;;;53.22;22.33;;;;;;;-150.07;43.67;54949.06;5032819;28;20049;-82
2021/04/29 08:58:15;;;;;;;67.53;24.58;;;;;;;-150.07;45.82;54949.06;5032989;28;20391;-87
2021/04/29 09:00:42;;;;;;;67.43;27.45;;;;;;;-150.07;48.85;54951.16;5031593;28;20483;-84
2021/04/29 09:03:09;;;;;;;60.65;29.63;;;;;;;-150.07;50.25;54949.06;5031094;28;20053;-87
2021/04/29 09:05:36;;;;;;;62.75;26.10;;;;;;;-150.07;51.23;54949.06;5046961;28;20029;-88
2021/04/29 09:08:10;;;;;;;71.75;30.42;;;;;;;-150.07;51.75;54946.97;5046796;28;20091;-88
2021/04/29 09:10:42;;;;;;;56.47;28.92;;;;;;;-150.07;50.41;54951.16;5034787;28;20033;-87
2021/04/29 09:13:22;;;;;;;63.10;27.92;;;;;;;-150.07;49.24;54951.16;5034856;28;20475;-88
2021/04/29 09:15:51;;;;;;;63.80;27.25;;;;;;;-150.07;46.83;54949.06;5037565;28;20020;-84
2021/04/29 09:18:20;;;;;;;62.42;24.90;;;;;;;-150.07;45.70;54951.16;5035237;28;20498;-86
2021/04/29 09:20:59;;;;;;;69.00;24.35;;;;;;;-150.07;45.39;54946.97;5033285;28;20039;-82
2021/04/29 09:23:28;;;;;;;71.93;29.63;;;;;;;-150.07;45.53;54946.97;5033988;28;20030;-79
2021/04/29 09:26:00;;;;;;;78.63;26.57;;;;;;;-150.07;45.57;54951.16;5034752;28;20276;-83
2021/04/29 09:28:58;;;;;;;59.72;26.17;;;;;;;-150.07;45.51;54949.06;5030730;28;20052;-83
2021/04/29 09:31:26;;;;;;;49.70;23.23;;;;;;;-150.07;44.81;54946.97;5027160;28;20666;-82
2021/04/29 09:33:58;;;;;;;59.33;20.30;;;;;;;-150.07;43.86;54949.06;5029468;28;20112;-80
2021/04/29 09:36:37;;;;;;;58.72;23.65;;;;;;;-150.07;43.27;54949.06;5031399;28;20092;-83
2021/04/29 09:39:15;;;;;;;47.15;21.95;;;;;;;-150.07;42.61;54949.06;5032584;28;20033;-84
2021/04/29 09:41:49;;;;;;;43.65;19.42;;;;;;;-150.07;42.08;54944.88;5032332;28;20022;-81
2021/04/29 09:44:22;;;;;;;39.10;18.00;;;;;;;-150.07;42.07;54951.16;5032234;28;20040;-83
2021/04/29 09:46:55;;;;;;;44.67;16.73;;;;;;;-150.07;41.73;54949.06;5030449;28;20506;-86
2021/04/29 09:49:31;;;;;;;42.22;17.33;;;;;;;-150.07;42.57;54949.06;5027656;28;20033;-82
2021/04/29 09:52:03;;;;;;;74.43;25.00;;;;;;;-150.07;46.03;54946.97;5032295;28;20061;-81
2021/04/29 09:54:38;;;;;;;61.10;27.58;;;;;;;-150.07;47.93;54946.97;5028980;28;20033;-81
2021/04/29 09:57:08;;;;;;;53.75;26.05;;;;;;;-150.07;49.09;54949.06;5037327;28;20032;-87
2021/04/29 09:59:43;;;;;;;72.05;30.25;;;;;;;-150.07;50.15;54951.16;5038968;28;20048;-85
2021/04/29 10:02:12;;;;;;;58.70;28.60;;;;;;;-150.07;51.11;54949.06;5054324;28;20499;-89
2021/04/29 10:04:41;;;;;;;54.22;28.98;;;;;;;-150.07;51.15;54949.06;5035481;28;20075;-84
2021/04/29 10:07:09;;;;;;;64.07;28.65;;;;;;;-150.07;51.48;54949.06;5025065;28;20550;-84
2021/04/29 10:09:37;;;;;;;50.85;28.20;;;;;;;-150.07;51.40;54949.06;5030917;28;20021;-82
2021/04/29 10:12:10;;;;;;;59.58;30.05;;;;;;;-150.07;52.76;54949.06;5027463;28;20400;-82
2021/04/29 10:14:45;;;;;;;68.47;32.75;;;;;;;-150.07;53.06;54951.16;5030987;28;20121;-85
2021/04/29 10:17:14;;;;;;;60.13;30.33;;;;;;;-150.07;52.86;54951.16;5036811;28;20025;-85
2021/04/29 10:19:49;;;;;;;62.60;30.13;;;;;;;-150.07;52.84;54951.16;5031460;28;20033;-85
2021/04/29 10:22:16;;;;;;;63.33;29.40;;;;;;;-150.07;53.08;54951.16;5029938;28;20072;-82
2021/04/29 10:24:45;;;;;;;62.22;30.17;;;;;;;-150.07;52.99;54951.16;5030530;28;20506;-82
2021/04/29 10:27:17;;;;;;;56.28;30.52;;;;;;;-150.07;53.06;54955.34;5033844;28;20029;-82
2021/04/29 10:29:44;;;;;;;68.32;32.00;;;;;;;-150.07;52.61;54949.06;5030959;28;20037;-84
2021/04/29 10:32:16;;;;;;;56.40;27.25;;;;;;;-150.07;52.30;54946.97;5031127;28;20028;-83
2021/04/29 10:34:47;;;;;;;60.67;29.65;;;;;;;-150.07;51.76;54951.16;5031463;28;20025;-85
2021/04/29 10:37:27;;;;;;;71.63;30.70;;;;;;;-150.07;52.25;54951.16;5017149;28;20040;-83
2021/04/29 10:40:05;;;;;;;63.88;33.40;;;;;;;-150.07;52.84;54951.16;5020691;28;20060;-83
2021/04/29 10:42:44;;;;;;;59.90;31.98;;;;;;;-150.07;53.29;54951.16;5030487;28;20124;-82
2021/04/29 10:45:13;;;;;;;60.78;29.90;;;;;;;-150.07;53.37;54946.97;5027546;28;20037;-81
2021/04/29 10:47:42;;;;;;;70.88;33.15;;;;;;;-150.07;53.49;54951.16;5027855;28;20119;-83
2021/04/29 10:50:20;;;;;;;49.85;30.95;;;;;;;-150.07;53.38;54951.16;5031684;28;20108;-83
2021/04/29 10:52:55;;;;;;;71.40;31.63;;;;;;;-150.07;53.90;54949.06;5026534;28;20095;-82
2021/04/29 10:55:29;;;;;;;57.53;30.65;;;;;;;-150.07;53.67;54949.06;5030032;28;20076;-83
2021/04/29 10:57:57;;;;;;;67.88;31.65;;;;;;;-150.07;53.45;54946.97;5020451;28;20033;-83
2021/04/29 11:00:27;;;;;;;56.97;31.63;;;;;;;-150.07;53.13;54946.97;5030314;28;20029;-85
2021/04/29 11:03:12;;;;;;;57.83;31.10;;;;;;;-150.07;53.45;54951.16;5029115;28;20025;-84
2021/04/29 11:05:39;;;;;;;58.40;29.45;;;;;;;-150.07;52.81;54951.16;5036456;28;20098;-84
2021/04/29 11:08:12;;;;;;;66.57;29.42;;;;;;;-150.07;52.53;54946.97;5029773;28;20087;-84
2021/04/29 11:10:40;;;;;;;55.63;31.00;;;;;;;-150.07;52.49;54951.16;5030339;28;20040;-85